Time;durP1;ratioP1;P1;durP2;ratioP2;P2;SDS_P1;SDS_P2;PMS_P1;PMS_P2;Temp;Humidity;BMP_temperature;BMP_pressure;BME280_temperature;BME280_humidity;BME280_pressure;Samples;Min_cycle;Max_cycle;Signal;HPM_P1;HPM_P2
2022/06/01 00:01:05;;;;;;;4.37;4.17;;;13.30;99.90;;;;;;4970413;28;20470;-78
2022/06/01 00:03:35;;;;;;;5.13;4.13;;;13.20;99.90;;;;;;4975737;28;20487;-79
2022/06/01 00:06:03;;;;;;;5.27;4.97;;;13.20;99.90;;;;;;4959877;28;20453;-79
2022/06/01 00:08:31;;;;;;;4.20;3.87;;;13.10;99.90;;;;;;4956225;28;20472;-78
2022/06/01 00:10:58;;;;;;;4.63;4.13;;;13.00;99.90;;;;;;4970204;28;20491;-79
2022/06/01 00:13:26;;;;;;;4.30;4.00;;;13.00;99.90;;;;;;4975501;28;20451;-79
2022/06/01 00:15:53;;;;;;;6.73;4.67;;;12.90;99.90;;;;;;4973682;28;20459;-78
2022/06/01 00:18:22;;;;;;;5.33;4.93;;;13.00;99.90;;;;;;4974990;28;20490;-78
2022/06/01 00:20:49;;;;;;;6.90;4.60;;;13.00;99.90;;;;;;4958145;28;20461;-78
2022/06/01 00:23:18;;;;;;;4.97;4.57;;;13.00;99.90;;;;;;4957230;28;20498;-79
2022/06/01 00:25:45;;;;;;;5.27;4.60;;;13.00;99.90;;;;;;4955888;28;20449;-79
2022/06/01 00:28:11;;;;;;;4.60;4.30;;;13.00;99.90;;;;;;4964622;28;20472;-79
2022/06/01 00:30:38;;;;;;;4.47;4.10;;;12.90;99.90;;;;;;4974804;28;20455;-78
2022/06/01 00:33:05;;;;;;;4.43;4.13;;;12.90;99.90;;;;;;4967120;28;20453;-78
2022/06/01 00:35:33;;;;;;;3.90;3.70;;;12.90;99.90;;;;;;4955685;28;20949;-79
2022/06/01 00:37:59;;;;;;;4.90;4.37;;;12.80;99.90;;;;;;4956460;28;20476;-79
2022/06/01 00:40:30;;;;;;;5.27;4.80;;;12.80;99.90;;;;;;4955438;28;20467;-78
2022/06/01 00:43:00;;;;;;;5.37;4.80;;;12.80;99.90;;;;;;4961885;28;20804;-79
2022/06/01 00:45:30;;;;;;;10.60;5.10;;;12.80;99.90;;;;;;4977053;28;20491;-78
2022/06/01 00:47:57;;;;;;;4.33;4.00;;;12.90;99.90;;;;;;4970945;28;20879;-78
2022/06/01 00:50:28;;;;;;;4.93;4.67;;;12.70;99.90;;;;;;4955746;28;20448;-78
2022/06/01 00:52:58;;;;;;;3.90;3.60;;;12.70;99.90;;;;;;4955356;28;20458;-79
2022/06/01 00:55:30;;;;;;;4.30;3.97;;;12.70;99.90;;;;;;4955389;28;20456;-78
2022/06/01 00:58:02;;;;;;;4.40;4.10;;;12.70;99.90;;;;;;4936309;29;20484;-78
2022/06/01 01:00:32;;;;;;;4.00;3.70;;;12.70;99.90;;;;;;4936285;28;20546;-79
2022/06/01 01:03:01;;;;;;;3.90;3.70;;;12.60;99.90;;;;;;4936200;29;20995;-79
2022/06/01 01:05:30;;;;;;;4.40;4.10;;;12.60;99.90;;;;;;4935906;29;20496;-78
2022/06/01 01:07:58;;;;;;;5.43;5.13;;;12.60;99.90;;;;;;4973628;28;20486;-79
2022/06/01 01:10:25;;;;;;;4.73;4.33;;;12.60;99.90;;;;;;4969381;28;20467;-78
2022/06/01 01:12:59;;;;;;;5.00;4.30;;;12.40;99.90;;;;;;4954621;28;20468;-79
2022/06/01 01:15:31;;;;;;;3.43;3.20;;;12.40;99.90;;;;;;4959064;28;20477;-78
2022/06/01 01:17:59;;;;;;;4.13;3.80;;;12.50;99.90;;;;;;4977562;28;20475;-78
2022/06/01 01:20:27;;;;;;;4.23;3.87;;;12.30;99.90;;;;;;4988746;28;20468;-78
2022/06/01 01:23:01;;;;;;;4.13;3.90;;;12.20;99.90;;;;;;4982371;28;20454;-79
2022/06/01 01:25:32;;;;;;;5.10;4.70;;;12.30;99.90;;;;;;4973776;28;20475;-78
2022/06/01 01:28:00;;;;;;;4.70;4.30;;;12.20;99.90;;;;;;4974083;28;20890;-78
2022/06/01 01:30:37;;;;;;;3.97;3.77;;;12.30;99.90;;;;;;4970119;28;20467;-79
2022/06/01 01:33:05;;;;;;;6.17;4.40;;;12.30;99.90;;;;;;4962371;28;20462;-78
2022/06/01 01:35:32;;;;;;;4.50;4.20;;;12.30;99.90;;;;;;4955469;28;20460;-79
2022/06/01 01:38:03;;;;;;;4.80;4.40;;;12.30;99.90;;;;;;4954258;28;20487;-78
2022/06/01 01:40:31;;;;;;;5.10;4.60;;;12.20;99.90;;;;;;4955463;28;20840;-78
2022/06/01 01:43:00;;;;;;;4.70;4.30;;;12.30;99.90;;;;;;4954995;28;20512;-79
2022/06/01 01:45:29;;;;;;;4.50;4.10;;;12.40;99.90;;;;;;4958955;28;20514;-78
2022/06/01 01:47:56;;;;;;;4.57;4.17;;;12.40;99.90;;;;;;4973888;28;21174;-79
2022/06/01 01:50:24;;;;;;;4.50;4.20;;;12.40;99.90;;;;;;4970111;28;21032;-79
2022/06/01 01:52:51;;;;;;;6.07;5.53;;;12.40;99.90;;;;;;4954632;28;20949;-78
2022/06/01 01:55:24;;;;;;;4.37;4.07;;;12.50;99.90;;;;;;4956971;28;20486;-79
2022/06/01 01:57:58;;;;;;;4.20;3.90;;;12.60;99.90;;;;;;4973343;28;20985;-78
2022/06/01 02:00:29;;;;;;;4.63;4.33;;;12.40;99.90;;;;;;4955861;28;20460;-78
2022/06/01 02:03:03;;;;;;;4.60;4.30;;;12.30;99.90;;;;;;4954165;28;20455;-78
2022/06/01 02:08:25;;;;;;;4.70;4.40;;;12.20;99.90;;;;;;4973779;28;20527;-78
2022/06/01 02:14:01;;;;;;;4.33;3.93;;;12.20;99.90;;;;;;4921239;29;20511;-79
2022/06/01 02:16:31;;;;;;;4.87;4.37;;;12.20;99.90;;;;;;4952114;29;20459;-78
2022/06/01 02:19:01;;;;;;;4.87;4.57;;;12.00;99.90;;;;;;4961130;28;20481;-78
2022/06/01 02:21:29;;;;;;;4.63;4.33;;;12.00;99.90;;;;;;4943606;28;20459;-79
2022/06/01 02:23:59;;;;;;;4.97;4.57;;;11.90;99.90;;;;;;4954150;28;20462;-78
2022/06/01 02:26:27;;;;;;;6.83;6.33;;;11.90;99.90;;;;;;4961121;28;20989;-79
2022/06/01 02:29:01;;;;;;;5.20;4.80;;;11.90;99.90;;;;;;4967692;28;20487;-79
2022/06/01 02:31:29;;;;;;;7.50;5.10;;;11.90;99.90;;;;;;4954058;28;20471;-78
2022/06/01 02:33:57;;;;;;;7.00;5.40;;;11.90;99.90;;;;;;4958955;28;20812;-78
2022/06/01 02:36:26;;;;;;;4.40;4.10;;;12.00;99.90;;;;;;4973690;28;20462;-78
2022/06/01 02:38:55;;;;;;;5.93;4.73;;;12.10;99.90;;;;;;4969089;28;20480;-78
2022/06/01 02:44:08;;;;;;;4.60;4.20;;;12.00;99.90;;;;;;4962829;28;20574;-78
2022/06/01 02:46:36;;;;;;;5.00;4.60;;;11.90;99.90;;;;;;4976834;28;20462;-79
2022/06/01 02:49:03;;;;;;;4.50;4.20;;;11.80;99.90;;;;;;4974977;28;20489;-78
2022/06/01 02:51:30;;;;;;;5.43;5.03;;;11.80;99.90;;;;;;4976466;28;20945;-78
2022/06/01 02:53:57;;;;;;;4.83;4.53;;;11.80;99.90;;;;;;4973257;28;20842;-78
2022/06/01 02:56:25;;;;;;;5.37;4.97;;;11.70;99.90;;;;;;4957422;28;20452;-79
2022/06/01 02:58:51;;;;;;;5.00;4.60;;;11.60;99.90;;;;;;4958982;28;20483;-79
2022/06/01 03:01:20;;;;;;;6.83;6.27;;;11.50;99.90;;;;;;4976726;28;20830;-79
2022/06/01 03:03:47;;;;;;;4.77;4.40;;;11.50;99.90;;;;;;4973244;28;20459;-79
2022/06/01 03:06:14;;;;;;;4.80;4.13;;;11.40;99.90;;;;;;4976161;28;20470;-78
2022/06/01 03:08:41;;;;;;;6.47;5.97;;;11.30;99.90;;;;;;4958914;28;20499;-79
2022/06/01 03:11:08;;;;;;;4.83;4.43;;;11.30;99.90;;;;;;4956654;28;20459;-78
2022/06/01 03:13:34;;;;;;;4.47;4.17;;;11.40;99.90;;;;;;4972103;28;20541;-79
2022/06/01 03:16:01;;;;;;;5.40;5.10;;;11.40;99.90;;;;;;4976144;28;20450;-79
2022/06/01 03:18:31;;;;;;;5.13;4.83;;;11.40;99.90;;;;;;4963632;28;20483;-78
2022/06/01 03:20:58;;;;;;;5.40;4.97;;;11.40;99.90;;;;;;4958092;28;20490;-78
2022/06/01 03:23:25;;;;;;;8.30;4.73;;;11.40;99.90;;;;;;4959699;28;20482;-78
2022/06/01 03:25:52;;;;;;;4.83;4.43;;;11.40;99.90;;;;;;4958318;28;20870;-79
2022/06/01 03:28:19;;;;;;;7.00;5.50;;;11.40;99.90;;;;;;4956550;28;20483;-79
2022/06/01 03:30:46;;;;;;;5.20;4.80;;;11.50;99.90;;;;;;4956557;28;20503;-78
2022/06/01 03:33:14;;;;;;;6.83;6.13;;;11.40;99.90;;;;;;4967768;28;20521;-79
2022/06/01 03:35:42;;;;;;;5.30;5.00;;;11.30;99.90;;;;;;4975736;28;20506;-78
2022/06/01 03:38:09;;;;;;;5.77;5.37;;;11.30;99.90;;;;;;4965520;28;20498;-78
2022/06/01 03:40:38;;;;;;;6.33;5.33;;;11.40;99.90;;;;;;4956347;28;20459;-78
2022/06/01 03:43:06;;;;;;;5.23;4.93;;;11.30;99.90;;;;;;4965491;28;20544;-79
2022/06/01 03:48:17;;;;;;;5.20;4.83;;;11.40;99.90;;;;;;4956357;29;20455;-79
2022/06/01 03:50:45;;;;;;;5.03;4.70;;;11.40;99.90;;;;;;4964370;28;20858;-78
2022/06/01 03:53:12;;;;;;;5.43;5.13;;;11.50;99.90;;;;;;4975505;28;20855;-78
2022/06/01 03:55:40;;;;;;;8.27;5.83;;;11.40;99.90;;;;;;4967235;28;20460;-78
2022/06/01 03:58:07;;;;;;;7.43;4.80;;;11.50;99.90;;;;;;4956235;28;20479;-78
2022/06/01 04:00:34;;;;;;;4.37;4.17;;;11.50;99.90;;;;;;4956971;28;20452;-79
2022/06/01 04:03:01;;;;;;;5.27;4.97;;;11.60;99.90;;;;;;4956328;28;20459;-78
2022/06/01 04:05:28;;;;;;;6.23;5.73;;;11.50;99.90;;;;;;4964577;28;20486;-79
2022/06/01 04:07:56;;;;;;;5.87;5.47;;;11.50;99.90;;;;;;4975698;28;20482;-78
2022/06/01 04:10:23;;;;;;;5.17;4.77;;;11.60;99.90;;;;;;5024831;23;20500;-78
2022/06/01 04:12:49;;;;;;;5.40;5.00;;;11.60;99.90;;;;;;5007902;28;20973;-78
2022/06/01 04:15:17;;;;;;;4.80;4.50;;;11.60;99.90;;;;;;5002182;28;20531;-78
2022/06/01 04:17:44;;;;;;;5.93;5.40;;;11.70;99.90;;;;;;4989707;28;20447;-80
2022/06/01 04:20:12;;;;;;;5.43;5.03;;;11.70;99.90;;;;;;4988063;28;20843;-78
2022/06/01 04:22:41;;;;;;;6.23;5.63;;;11.70;99.90;;;;;;4993061;28;20521;-78
2022/06/01 04:25:15;;;;;;;5.37;4.87;;;11.60;99.90;;;;;;5007157;28;20578;-79
2022/06/01 04:27:41;;;;;;;5.13;4.73;;;11.60;99.90;;;;;;5005379;28;20461;-78
2022/06/01 04:30:12;;;;;;;5.40;5.00;;;11.70;99.90;;;;;;5007346;28;20482;-78
2022/06/01 04:32:38;;;;;;;4.97;4.63;;;11.80;99.90;;;;;;4999170;28;20443;-78
2022/06/01 04:35:07;;;;;;;5.30;4.90;;;11.70;99.90;;;;;;4979804;28;20466;-79
2022/06/01 04:37:34;;;;;;;5.40;5.00;;;11.90;99.90;;;;;;4978178;28;20462;-79
2022/06/01 04:40:00;;;;;;;5.03;4.63;;;11.90;99.90;;;;;;4977799;28;20474;-80
2022/06/01 04:42:28;;;;;;;5.23;4.80;;;11.90;99.90;;;;;;4978102;28;20454;-80
2022/06/01 04:44:55;;;;;;;5.40;5.00;;;12.00;99.90;;;;;;4978301;28;20901;-79
2022/06/01 04:47:22;;;;;;;6.10;5.70;;;12.10;99.90;;;;;;4977922;28;20463;-79
2022/06/01 04:49:49;;;;;;;4.80;4.43;;;12.10;99.90;;;;;;4984996;28;20477;-80
2022/06/01 04:52:16;;;;;;;7.43;5.87;;;12.10;99.90;;;;;;4997579;28;20450;-80
2022/06/01 04:54:43;;;;;;;4.43;4.13;;;12.30;99.90;;;;;;4990860;28;20455;-79
2022/06/01 04:57:09;;;;;;;5.03;4.37;;;12.30;99.90;;;;;;4978052;28;20812;-80
2022/06/01 04:59:37;;;;;;;4.67;4.33;;;12.30;99.90;;;;;;4982161;28;20479;-80
2022/06/01 05:02:05;;;;;;;4.57;4.17;;;12.40;99.90;;;;;;4997490;28;20449;-80
2022/06/01 05:04:32;;;;;;;4.40;4.10;;;12.50;99.90;;;;;;4997381;28;20455;-80
2022/06/01 05:07:00;;;;;;;4.93;4.63;;;12.60;99.90;;;;;;4997373;28;20451;-80
2022/06/01 05:09:27;;;;;;;4.93;4.63;;;12.60;99.90;;;;;;4995498;28;21256;-80
2022/06/01 05:11:54;;;;;;;4.90;4.37;;;12.80;99.90;;;;;;4975776;28;20455;-80
2022/06/01 05:14:21;;;;;;;6.27;4.77;;;12.80;99.90;;;;;;4995496;28;20454;-78
2022/06/01 05:16:49;;;;;;;4.63;4.33;;;12.80;99.90;;;;;;5007309;28;20450;-78
2022/06/01 05:19:15;;;;;;;5.00;4.60;;;12.80;99.90;;;;;;4993929;28;20463;-79
2022/06/01 05:21:42;;;;;;;5.27;4.87;;;13.00;99.90;;;;;;4977640;28;20452;-79
2022/06/01 05:24:09;;;;;;;5.10;4.70;;;13.10;99.90;;;;;;4993275;28;20458;-80
2022/06/01 05:26:36;;;;;;;4.73;4.17;;;13.10;99.90;;;;;;4983659;28;20490;-80
2022/06/01 05:29:03;;;;;;;4.10;3.90;;;13.10;99.90;;;;;;4982679;28;20479;-80
2022/06/01 05:31:29;;;;;;;4.67;4.37;;;13.30;99.90;;;;;;4996370;28;20461;-79
2022/06/01 05:33:57;;;;;;;4.90;4.50;;;13.40;99.90;;;;;;4989440;28;20948;-80
2022/06/01 05:36:24;;;;;;;5.17;4.80;;;13.50;99.90;;;;;;4995989;28;20447;-80
2022/06/01 05:38:51;;;;;;;5.23;4.00;;;13.50;99.90;;;;;;4997562;28;20529;-80
2022/06/01 05:41:18;;;;;;;5.47;5.07;;;13.70;99.90;;;;;;4983450;28;20459;-79
2022/06/01 05:43:45;;;;;;;4.60;4.20;;;13.70;99.90;;;;;;4979570;28;20452;-80
2022/06/01 05:46:12;;;;;;;6.07;4.37;;;13.70;99.90;;;;;;4978311;28;20864;-79
2022/06/01 05:48:39;;;;;;;4.57;4.27;;;13.80;99.90;;;;;;4977332;28;20478;-80
2022/06/01 05:51:07;;;;;;;5.20;4.70;;;13.90;99.90;;;;;;4994021;28;20521;-80
2022/06/01 05:53:34;;;;;;;5.00;4.70;;;13.90;99.90;;;;;;4992138;28;20463;-80
2022/06/01 05:56:00;;;;;;;4.40;4.10;;;13.90;99.90;;;;;;4994425;28;20455;-80
2022/06/01 05:58:29;;;;;;;5.10;4.80;;;14.10;99.90;;;;;;4977459;28;20958;-80
2022/06/01 06:01:01;;;;;;;4.40;4.10;;;14.20;99.90;;;;;;4981233;28;20445;-80
2022/06/01 06:03:28;;;;;;;4.37;3.97;;;14.30;99.90;;;;;;4997976;28;20466;-80
2022/06/01 06:06:15;;;;;;;3.70;3.50;;;14.30;99.90;;;;;;5000382;28;20842;-80
2022/06/01 06:08:46;;;;;;;4.30;4.00;;;14.40;99.90;;;;;;5000087;28;20505;-80
2022/06/01 06:11:13;;;;;;;4.13;3.83;;;14.50;99.90;;;;;;4999137;28;20454;-80
2022/06/01 06:13:40;;;;;;;4.40;3.53;;;14.50;99.90;;;;;;4996331;28;20452;-80
2022/06/01 06:16:07;;;;;;;5.17;3.60;;;14.70;99.90;;;;;;4988568;28;20447;-79
2022/06/01 06:18:35;;;;;;;4.50;3.73;;;14.80;99.90;;;;;;4998214;28;20482;-81
2022/06/01 06:21:02;;;;;;;4.37;3.97;;;14.90;99.90;;;;;;4993922;28;20466;-81
2022/06/01 06:23:28;;;;;;;4.53;3.60;;;15.00;99.90;;;;;;4988932;28;20457;-80
2022/06/01 06:25:57;;;;;;;4.37;3.97;;;15.10;99.90;;;;;;4995326;28;20843;-79
2022/06/01 06:28:24;;;;;;;4.53;4.20;;;15.10;99.90;;;;;;4992597;28;20472;-79
2022/06/01 06:30:51;;;;;;;3.77;3.47;;;15.20;99.90;;;;;;5002167;28;20677;-80
2022/06/01 06:33:18;;;;;;;4.70;4.30;;;15.20;99.90;;;;;;4992262;28;20443;-79
2022/06/01 06:35:45;;;;;;;4.10;3.80;;;15.40;99.90;;;;;;4991793;28;20994;-80
2022/06/01 06:38:12;;;;;;;4.47;4.17;;;15.40;99.90;;;;;;4984290;28;20450;-80
2022/06/01 06:40:39;;;;;;;3.70;3.47;;;15.40;99.90;;;;;;4990375;28;20448;-79
2022/06/01 06:43:07;;;;;;;5.03;4.00;;;15.60;99.90;;;;;;4989908;28;20851;-80
2022/06/01 06:45:35;;;;;;;4.13;3.87;;;15.60;99.90;;;;;;4990129;28;20486;-80
2022/06/01 06:48:02;;;;;;;4.23;3.77;;;15.70;99.90;;;;;;4990988;28;20455;-80
2022/06/01 06:50:28;;;;;;;4.00;3.70;;;15.80;99.90;;;;;;4990763;28;20852;-80
2022/06/01 06:52:55;;;;;;;3.93;3.73;;;15.90;99.90;;;;;;4990240;28;20941;-79
2022/06/01 06:55:22;;;;;;;4.40;4.10;;;16.00;99.90;;;;;;4989395;28;20444;-80
2022/06/01 06:57:49;;;;;;;2.80;2.60;;;16.10;99.90;;;;;;4989169;28;20474;-79
2022/06/01 07:00:18;;;;;;;3.77;3.47;;;16.20;99.90;;;;;;4986873;28;21137;-78
2022/06/01 07:02:45;;;;;;;3.83;3.60;;;16.30;99.90;;;;;;4979496;28;20453;-78
2022/06/01 07:06:08;;;;;;;4.07;3.87;;;16.30;99.90;;;;;;4978768;28;20483;-79
2022/06/01 07:08:03;;;;;;;3.73;3.43;;;16.40;99.90;;;;;;4979583;28;20868;-81
2022/06/01 07:10:29;;;;;;;4.07;3.77;;;16.60;99.90;;;;;;4978920;28;20499;-80
2022/06/01 07:12:56;;;;;;;4.40;3.50;;;16.60;99.90;;;;;;4979191;28;20464;-79
2022/06/01 07:15:25;;;;;;;3.83;3.60;;;16.70;99.90;;;;;;4978851;28;20441;-80
2022/06/01 07:17:52;;;;;;;4.13;3.77;;;16.70;99.90;;;;;;4980271;28;20974;-79
2022/06/01 07:20:19;;;;;;;3.37;3.03;;;16.80;99.90;;;;;;4993076;28;20481;-79
2022/06/01 07:22:46;;;;;;;6.83;3.67;;;16.90;99.90;;;;;;4980116;28;20460;-81
2022/06/01 07:25:14;;;;;;;4.90;4.40;;;17.00;99.90;;;;;;4980587;28;21043;-80
2022/06/01 07:27:42;;;;;;;3.70;3.50;;;17.10;99.90;;;;;;4985930;28;20457;-80
2022/06/01 07:30:10;;;;;;;3.27;3.07;;;17.20;99.90;;;;;;4978723;28;20552;-80
2022/06/01 07:32:38;;;;;;;4.10;3.20;;;17.30;99.90;;;;;;4979869;28;20493;-80
2022/06/01 07:35:06;;;;;;;3.90;3.33;;;17.20;99.90;;;;;;4979486;28;20458;-80
2022/06/01 07:43:08;;;;;;;4.30;3.67;;;17.60;99.90;;;;;;4979801;28;20428;-80
2022/06/01 07:45:35;;;;;;;3.20;3.00;;;17.70;99.90;;;;;;4979198;28;20496;-80
2022/06/01 07:48:04;;;;;;;3.83;3.60;;;17.80;99.00;;;;;;4980357;28;20534;-80
2022/06/01 07:50:32;;;;;;;3.03;2.80;;;17.80;98.80;;;;;;4979240;28;20490;-80
2022/06/01 07:52:59;;;;;;;3.60;3.00;;;17.90;98.80;;;;;;4979648;28;20457;-80
2022/06/01 07:55:26;;;;;;;4.70;3.00;;;18.00;98.40;;;;;;4979267;28;20461;-80
2022/06/01 07:57:53;;;;;;;4.37;3.07;;;18.10;98.10;;;;;;4979466;28;20461;-80
2022/06/01 08:00:21;;;;;;;3.30;3.10;;;18.20;98.00;;;;;;4979131;28;20478;-80
2022/06/01 08:02:48;;;;;;;3.63;2.40;;;18.30;98.00;;;;;;4979079;28;20454;-80
2022/06/01 08:05:19;;;;;;;2.63;2.53;;;18.40;96.80;;;;;;4979301;28;20467;-80
2022/06/01 08:07:46;;;;;;;2.40;2.20;;;18.50;96.20;;;;;;4979155;28;20454;-80
2022/06/01 08:10:15;;;;;;;2.83;2.63;;;18.60;94.00;;;;;;4978598;28;20494;-80
2022/06/01 08:15:27;;;;;;;2.60;2.40;;;18.80;92.90;;;;;;4979633;28;20869;-80
2022/06/01 08:17:54;;;;;;;2.17;1.70;;;19.00;91.90;;;;;;4980267;28;20462;-79
2022/06/01 08:20:23;;;;;;;1.97;1.87;;;19.10;91.40;;;;;;4980837;28;20479;-80
2022/06/01 08:22:50;;;;;;;3.03;2.77;;;19.20;92.00;;;;;;4981071;28;20462;-80
2022/06/01 08:25:17;;;;;;;2.00;1.90;;;19.30;89.20;;;;;;4979810;28;20455;-80
2022/06/01 08:27:44;;;;;;;2.10;2.00;;;19.40;87.30;;;;;;4978848;28;20543;-80
2022/06/01 08:30:13;;;;;;;2.10;2.00;;;19.50;85.50;;;;;;4980638;28;20475;-80
2022/06/01 08:32:40;;;;;;;2.03;1.93;;;19.60;83.20;;;;;;4981335;28;20455;-80
2022/06/01 08:35:08;;;;;;;3.30;2.50;;;19.70;84.60;;;;;;4980452;28;20452;-80
2022/06/01 08:37:37;;;;;;;2.23;2.00;;;19.70;81.00;;;;;;4980183;28;20967;-80
2022/06/01 08:40:05;;;;;;;2.00;1.80;;;19.70;81.40;;;;;;4980239;28;20468;-80
2022/06/01 08:42:33;;;;;;;2.30;2.20;;;19.80;82.60;;;;;;4980041;28;20483;-80
2022/06/01 08:45:06;;;;;;;2.10;2.00;;;19.90;81.20;;;;;;4981040;28;20467;-80
2022/06/01 08:47:35;;;;;;;4.10;1.87;;;20.00;81.20;;;;;;4980870;28;20492;-80
2022/06/01 08:50:09;;;;;;;2.20;2.10;;;20.10;81.60;;;;;;4981148;28;20460;-80
2022/06/01 08:52:38;;;;;;;1.83;1.73;;;20.30;80.30;;;;;;4982228;28;20550;-80
2022/06/01 08:55:06;;;;;;;1.77;1.67;;;20.10;78.00;;;;;;4981106;28;20452;-80
2022/06/01 08:57:45;;;;;;;1.90;1.80;;;20.00;76.20;;;;;;4982134;28;20448;-80
2022/06/01 09:00:15;;;;;;;1.97;1.87;;;19.80;73.80;;;;;;4981034;28;20478;-80
2022/06/01 09:02:49;;;;;;;1.70;1.60;;;19.80;74.40;;;;;;4980252;28;20455;-80
2022/06/01 09:05:21;;;;;;;1.83;1.73;;;20.00;74.20;;;;;;4980870;28;20466;-80
2022/06/01 09:07:54;;;;;;;3.83;2.17;;;20.20;72.00;;;;;;4980740;28;20498;-80
2022/06/01 09:10:39;;;;;;;2.53;2.40;;;20.40;72.50;;;;;;4980342;28;20832;-80
2022/06/01 09:13:10;;;;;;;2.30;2.10;;;20.60;72.30;;;;;;4980862;28;20463;-81
2022/06/01 09:15:45;;;;;;;2.00;1.80;;;20.70;73.40;;;;;;4980881;28;20459;-81
2022/06/01 09:18:14;;;;;;;2.33;2.13;;;21.00;73.40;;;;;;4979889;28;20461;-80
2022/06/01 09:23:26;;;;;;;1.70;1.60;;;21.40;70.90;;;;;;4978057;28;20460;-80
2022/06/01 09:25:55;;;;;;;1.80;1.53;;;21.50;68.60;;;;;;4978021;28;20468;-80
2022/06/01 09:28:27;;;;;;;1.70;1.60;;;21.30;63.90;;;;;;4978055;28;20457;-80
2022/06/01 09:31:11;;;;;;;2.43;1.43;;;21.10;64.90;;;;;;4977233;28;20460;-80
2022/06/01 09:33:38;;;;;;;2.10;1.90;;;21.20;62.50;;;;;;4977652;28;20967;-80
2022/06/01 09:36:26;;;;;;;1.50;1.30;;;21.10;61.70;;;;;;4977961;28;20483;-80
2022/06/01 09:39:20;;;;;;;1.87;1.67;;;20.80;60.90;;;;;;4979313;28;20480;-80
2022/06/01 09:41:47;;;;;;;1.80;1.70;;;20.70;60.30;;;;;;4979200;28;20960;-81
2022/06/01 09:44:18;;;;;;;2.10;1.50;;;20.90;61.90;;;;;;4980869;28;20460;-81
2022/06/01 09:46:55;;;;;;;1.67;1.57;;;21.00;62.30;;;;;;4980193;28;21025;-81
2022/06/01 09:49:25;;;;;;;1.80;1.70;;;21.20;61.60;;;;;;4980130;28;20998;-81
2022/06/01 09:51:56;;;;;;;2.10;1.27;;;21.20;61.00;;;;;;4981808;28;20453;-81
2022/06/01 09:54:31;;;;;;;2.20;1.50;;;21.10;61.40;;;;;;4984770;28;20460;-81
2022/06/01 09:56:58;;;;;;;1.30;1.20;;;21.20;62.60;;;;;;4984485;28;20925;-81
2022/06/01 10:07:50;;;;;;;1.80;1.70;;;22.10;58.50;;;;;;4984314;28;20484;-81
2022/06/01 10:10:27;;;;;;;1.63;1.53;;;22.10;57.60;;;;;;5011641;23;21227;-86
2022/06/01 10:12:56;;;;;;;2.40;1.37;;;22.30;58.30;;;;;;5014639;28;20435;-85
2022/06/01 10:15:30;;;;;;;1.47;1.37;;;22.40;57.00;;;;;;5004556;28;20457;-85
2022/06/01 10:18:01;;;;;;;3.73;1.53;;;22.40;56.40;;;;;;5005540;28;20426;-85
2022/06/01 10:20:32;;;;;;;1.47;1.40;;;22.00;55.10;;;;;;4990432;28;20481;-86
2022/06/01 10:23:04;;;;;;;2.20;1.50;;;21.60;54.70;;;;;;4986783;28;20875;-87
2022/06/01 10:25:38;;;;;;;1.73;1.63;;;21.40;55.80;;;;;;4987405;28;20455;-85
2022/06/01 10:28:08;;;;;;;1.60;1.40;;;21.20;56.10;;;;;;4987211;28;20484;-85
2022/06/01 10:30:38;;;;;;;1.33;1.23;;;21.20;55.80;;;;;;4986078;28;20476;-86
2022/06/01 10:33:09;;;;;;;3.37;1.47;;;21.30;56.10;;;;;;4986821;28;20457;-85
2022/06/01 10:35:40;;;;;;;1.67;1.57;;;21.60;55.60;;;;;;4985140;28;20449;-85
2022/06/01 10:38:17;;;;;;;1.50;1.40;;;21.80;57.00;;;;;;4987526;28;20771;-86
2022/06/01 10:40:50;;;;;;;1.77;1.47;;;22.10;53.20;;;;;;4986464;28;20993;-87
2022/06/01 10:43:41;;;;;;;1.97;1.83;;;22.50;53.30;;;;;;4987289;28;20960;-87
2022/06/01 10:46:22;;;;;;;1.23;1.23;;;22.60;53.90;;;;;;4986930;28;20451;-85
2022/06/01 10:48:55;;;;;;;1.70;1.60;;;22.80;54.00;;;;;;4985610;28;20523;-86
2022/06/01 10:51:28;;;;;;;2.40;2.20;;;22.80;54.10;;;;;;4984618;28;20447;-86
2022/06/01 10:54:04;;;;;;;1.70;1.60;;;22.50;53.60;;;;;;4984019;28;20440;-85
2022/06/01 10:56:33;;;;;;;2.07;1.70;;;22.50;54.40;;;;;;4984719;28;20437;-85
2022/06/01 10:59:04;;;;;;;1.70;1.60;;;22.70;53.00;;;;;;4985129;28;20476;-87
2022/06/01 11:01:42;;;;;;;2.83;1.20;;;22.70;52.50;;;;;;4990651;28;20444;-88
2022/06/01 11:04:30;;;;;;;1.60;1.50;;;22.90;54.00;;;;;;4987230;28;20558;-87
2022/06/01 11:07:35;;;;;;;1.33;1.23;;;23.10;53.80;;;;;;4985338;28;20549;-86
2022/06/01 11:10:07;;;;;;;1.53;1.43;;;23.10;52.60;;;;;;4984648;28;20507;-86
2022/06/01 11:12:45;;;;;;;1.53;1.43;;;23.10;52.10;;;;;;4984405;28;20446;-88
2022/06/01 11:15:24;;;;;;;1.60;1.50;;;23.20;51.00;;;;;;4983936;28;20432;-86
2022/06/01 11:17:56;;;;;;;0.83;0.83;;;23.30;52.40;;;;;;4983789;28;20432;-87
2022/06/01 11:20:39;;;;;;;1.63;1.50;;;23.50;52.50;;;;;;4983651;28;20531;-87
2022/06/01 11:23:17;;;;;;;1.80;1.70;;;23.90;53.30;;;;;;4982912;28;20519;-86
2022/06/01 11:25:55;;;;;;;1.50;1.40;;;24.50;51.80;;;;;;4983912;28;20533;-86
2022/06/01 11:28:52;;;;;;;1.10;1.10;;;24.70;49.40;;;;;;4983351;28;20480;-86
2022/06/01 11:31:21;;;;;;;2.60;1.33;;;25.30;50.20;;;;;;4983088;28;20454;-86
2022/06/01 11:33:54;;;;;;;3.20;1.60;;;25.10;47.90;;;;;;4983256;28;20456;-86
2022/06/01 11:36:29;;;;;;;1.57;1.47;;;24.80;46.70;;;;;;4983797;28;20888;-86
2022/06/01 11:39:04;;;;;;;1.67;1.57;;;25.00;47.40;;;;;;4983828;28;20469;-86
2022/06/01 11:41:36;;;;;;;1.53;1.43;;;25.20;48.20;;;;;;4982830;28;20445;-86
2022/06/01 11:44:08;;;;;;;1.57;1.47;;;25.50;46.00;;;;;;4982916;28;20449;-85
2022/06/01 11:46:42;;;;;;;1.00;1.00;;;25.70;45.60;;;;;;4982160;28;20474;-87
2022/06/01 11:49:13;;;;;;;1.30;1.30;;;25.80;45.10;;;;;;4981094;28;20481;-86
2022/06/01 11:51:49;;;;;;;2.47;2.27;;;25.50;45.10;;;;;;4983379;28;20454;-86
2022/06/01 11:54:27;;;;;;;3.57;2.43;;;25.60;44.90;;;;;;4982666;28;20441;-86
2022/06/01 11:56:59;;;;;;;2.13;1.60;;;25.30;44.50;;;;;;4982435;28;20452;-87
2022/06/01 11:59:35;;;;;;;1.80;1.70;;;25.00;46.20;;;;;;4981470;28;20831;-88
2022/06/01 12:02:19;;;;;;;1.63;1.50;;;25.30;45.70;;;;;;4982228;28;20458;-86
2022/06/01 12:04:55;;;;;;;2.07;1.40;;;25.60;43.60;;;;;;4981492;28;20443;-88
2022/06/01 12:07:26;;;;;;;1.60;1.50;;;25.80;42.80;;;;;;4980346;28;20515;-87
2022/06/01 12:10:01;;;;;;;1.70;1.57;;;26.00;44.90;;;;;;4980238;28;20520;-87
2022/06/01 12:12:46;;;;;;;1.73;1.40;;;26.30;43.80;;;;;;4980559;28;20444;-88
2022/06/01 12:15:24;;;;;;;1.80;1.70;;;25.70;43.90;;;;;;4980895;28;20929;-86
2022/06/01 12:18:18;;;;;;;1.80;1.57;;;25.60;46.00;;;;;;4980765;28;20801;-87
2022/06/01 12:20:55;;;;;;;2.10;1.47;;;25.60;45.10;;;;;;4980841;28;20480;-86
2022/06/01 12:29:54;;;;;;;1.77;1.67;;;25.50;44.90;;;;;;4981014;28;20828;-87
2022/06/01 12:32:22;;;;;;;1.30;1.30;;;26.00;44.70;;;;;;4980496;28;20433;-87
2022/06/01 12:35:00;;;;;;;1.43;1.33;;;25.80;44.10;;;;;;4981412;28;20465;-86
2022/06/01 12:37:36;;;;;;;2.30;2.10;;;26.10;44.00;;;;;;4979913;28;20504;-86
2022/06/01 12:40:06;;;;;;;2.00;1.90;;;25.70;44.30;;;;;;4981681;28;20558;-86
2022/06/01 12:42:36;;;;;;;1.57;1.47;;;25.40;44.10;;;;;;4988430;28;20438;-86
2022/06/01 12:45:12;;;;;;;1.87;1.77;;;25.50;44.40;;;;;;4980418;28;20459;-85
2022/06/01 12:47:55;;;;;;;1.50;1.40;;;25.00;45.00;;;;;;4980788;28;20830;-86
2022/06/01 12:50:24;;;;;;;1.93;1.83;;;25.40;46.00;;;;;;4979100;28;20480;-86
2022/06/01 12:53:15;;;;;;;2.03;1.93;;;25.20;45.20;;;;;;4979913;28;20495;-88
2022/06/01 12:55:43;;;;;;;1.83;1.73;;;24.90;45.20;;;;;;4980097;28;20891;-85
2022/06/01 12:58:16;;;;;;;2.07;1.97;;;25.10;45.50;;;;;;4979901;28;20974;-86
2022/06/01 13:00:50;;;;;;;1.70;1.60;;;25.00;45.70;;;;;;4979816;28;20477;-86
2022/06/01 13:03:20;;;;;;;1.67;1.50;;;24.90;46.40;;;;;;4980475;28;20836;-87
2022/06/01 13:05:52;;;;;;;3.87;2.03;;;24.70;46.10;;;;;;4980942;28;20791;-86
2022/06/01 13:08:22;;;;;;;2.03;1.93;;;24.80;47.30;;;;;;4980960;28;20476;-85
2022/06/01 13:14:28;;;;;;;2.13;2.03;;;25.70;47.00;;;;;;4960646;28;20450;-86
2022/06/01 13:17:01;;;;;;;1.87;1.70;;;26.40;46.30;;;;;;4980725;28;20455;-86
2022/06/01 13:19:31;;;;;;;1.70;1.53;;;26.40;45.60;;;;;;4978240;28;20482;-86
2022/06/01 13:22:03;;;;;;;1.80;1.70;;;26.30;45.10;;;;;;4978477;28;20461;-87
2022/06/01 13:24:32;;;;;;;1.50;1.40;;;26.10;45.40;;;;;;4977974;28;20439;-86
2022/06/01 13:27:00;;;;;;;1.97;1.87;;;26.40;45.90;;;;;;4978212;28;20458;-85
2022/06/01 13:33:56;;;;;;;2.07;1.97;;;26.00;47.50;;;;;;4977684;28;20443;-87
2022/06/01 13:36:32;;;;;;;2.07;1.90;;;26.10;46.90;;;;;;4965991;28;20457;-86
2022/06/01 13:39:04;;;;;;;2.33;2.03;;;26.10;46.40;;;;;;4978843;28;20477;-86
2022/06/01 13:41:37;;;;;;;1.90;1.80;;;26.50;46.50;;;;;;4977688;28;20456;-86
2022/06/01 13:44:09;;;;;;;1.77;1.67;;;26.70;46.10;;;;;;4977831;28;20470;-86
2022/06/01 13:46:39;;;;;;;2.40;2.20;;;26.90;45.60;;;;;;4978261;28;20543;-86
2022/06/01 13:49:12;;;;;;;2.00;1.90;;;26.80;46.30;;;;;;4977452;28;20500;-86